Terminal Aerodrome Forecast
Issued by NWS Blacksburg, VA

Home | Current Version | Previous Version | Text Only | Print | Product List | Glossary On
Versions: 1 2 3 4 5 6 7 8 9 10 11 12
000
FTUS41 KRNK 260522
TAFDAN
TAF
KDAN 260522Z 2606/2706 21004KT P6SM SCT060
     FM260800 23002KT 5SM BR BKN250
     FM261300 27005KT P6SM SCT100
     FM262100 28006KT P6SM VCTS BKN060CB
     FM270200 VRB03KT P6SM SCT050 BKN120=

USA.gov is the U.S. government's official web portal to all federal, state and local government web resources and services.